Time;durP1;ratioP1;P1;durP2;ratioP2;P2;SDS_P1;SDS_P2;PMS_P1;PMS_P2;Temp;Humidity;BMP_temperature;BMP_pressure;BME280_temperature;BME280_humidity;BME280_pressure;Samples;Min_cycle;Max_cycle;Signal;HPM_P1;HPM_P2
2022/03/14 00:02:20;;;;;;;31.30;28.30;;;;;;;;;;4978772;28;20761;-89
2022/03/14 00:04:50;;;;;;;30.00;27.93;;;;;;;;;;4978785;28;20418;-88
2022/03/14 00:07:19;;;;;;;30.17;28.07;;;;;;;;;;4978755;28;20536;-88
2022/03/14 00:09:46;;;;;;;29.10;27.13;;;;;;;;;;4978534;28;20425;-88
2022/03/14 00:12:17;;;;;;;30.23;28.03;;;;;;;;;;4978396;28;20446;-87
2022/03/14 00:14:44;;;;;;;29.93;27.87;;;;;;;;;;4978354;28;20801;-88
2022/03/14 00:17:11;;;;;;;29.83;27.93;;;;;;;;;;4978339;28;20476;-88
2022/03/14 00:19:39;;;;;;;30.43;28.43;;;;;;;;;;4978137;28;20465;-88
2022/03/14 00:22:09;;;;;;;30.17;27.93;;;;;;;;;;4978229;28;20484;-88
2022/03/14 00:24:38;;;;;;;29.70;27.67;;;;;;;;;;4977965;28;20447;-88
2022/03/14 00:27:07;;;;;;;29.70;27.50;;;;;;;;;;4977787;28;20478;-88
2022/03/14 00:29:34;;;;;;;28.70;26.90;;;;;;;;;;4977996;28;20422;-88
2022/03/14 00:32:01;;;;;;;30.87;28.87;;;;;;;;;;4978191;28;20413;-88
2022/03/14 00:34:29;;;;;;;29.40;27.23;;;;;;;;;;4978034;28;20424;-88
2022/03/14 00:36:56;;;;;;;30.43;27.87;;;;;;;;;;4977709;28;20414;-88
2022/03/14 00:39:23;;;;;;;29.90;27.90;;;;;;;;;;4978031;28;20463;-86
2022/03/14 00:41:52;;;;;;;28.40;26.40;;;;;;;;;;4978114;28;20410;-88
2022/03/14 00:44:19;;;;;;;29.43;27.10;;;;;;;;;;4977548;28;20429;-88
2022/03/14 00:46:46;;;;;;;29.63;27.67;;;;;;;;;;4977799;28;20473;-87
2022/03/14 00:49:14;;;;;;;29.43;27.43;;;;;;;;;;4977788;28;20467;-88
2022/03/14 00:51:42;;;;;;;30.30;28.20;;;;;;;;;;4977507;28;20442;-88
2022/03/14 00:54:09;;;;;;;28.87;27.07;;;;;;;;;;4977687;28;20505;-88
2022/03/14 00:56:36;;;;;;;30.70;28.70;;;;;;;;;;4977026;28;20451;-88
2022/03/14 00:59:05;;;;;;;29.90;27.60;;;;;;;;;;4977324;28;20535;-87
2022/03/14 01:01:32;;;;;;;29.10;27.03;;;;;;;;;;4977381;28;20447;-88
2022/03/14 01:03:59;;;;;;;30.60;28.70;;;;;;;;;;4977212;28;20414;-88
2022/03/14 01:06:27;;;;;;;30.77;28.47;;;;;;;;;;4977450;28;20486;-89
2022/03/14 01:08:55;;;;;;;29.30;27.30;;;;;;;;;;4977543;28;20456;-88
2022/03/14 01:11:22;;;;;;;29.57;27.57;;;;;;;;;;4977661;28;20429;-88
2022/03/14 01:13:49;;;;;;;30.67;28.57;;;;;;;;;;4977233;28;20418;-88
2022/03/14 01:16:18;;;;;;;30.03;27.97;;;;;;;;;;4977386;28;20425;-88
2022/03/14 01:18:45;;;;;;;28.90;27.00;;;;;;;;;;4977179;28;20552;-88
2022/03/14 01:21:13;;;;;;;29.60;27.70;;;;;;;;;;4976969;28;20443;-88
2022/03/14 01:23:40;;;;;;;28.80;26.83;;;;;;;;;;4977350;28;20476;-88
2022/03/14 01:26:09;;;;;;;29.07;27.27;;;;;;;;;;4977140;28;20537;-88
2022/03/14 01:28:36;;;;;;;29.90;27.90;;;;;;;;;;4977081;28;20443;-88
2022/03/14 01:31:04;;;;;;;30.37;28.13;;;;;;;;;;4977288;28;20414;-87
2022/03/14 01:33:32;;;;;;;30.30;28.23;;;;;;;;;;4977006;28;20468;-88
2022/03/14 01:36:00;;;;;;;28.97;27.13;;;;;;;;;;4977029;28;20414;-87
2022/03/14 01:38:27;;;;;;;29.60;27.57;;;;;;;;;;4976979;28;20463;-88
2022/03/14 01:40:55;;;;;;;28.80;26.70;;;;;;;;;;4976853;28;20418;-88
2022/03/14 01:43:24;;;;;;;29.03;26.93;;;;;;;;;;4976844;28;20418;-88
2022/03/14 01:45:52;;;;;;;29.00;27.00;;;;;;;;;;4976733;28;20492;-88
2022/03/14 01:48:19;;;;;;;29.50;27.50;;;;;;;;;;4976857;28;20449;-88
2022/03/14 01:50:48;;;;;;;29.37;27.37;;;;;;;;;;4976904;28;20816;-88
2022/03/14 01:53:16;;;;;;;29.80;27.80;;;;;;;;;;4976652;28;20443;-88
2022/03/14 01:55:43;;;;;;;28.83;27.03;;;;;;;;;;4976540;28;20880;-88
2022/03/14 01:58:11;;;;;;;29.00;27.10;;;;;;;;;;4975643;28;20899;-88
2022/03/14 02:00:39;;;;;;;31.07;28.70;;;;;;;;;;4975913;28;20765;-88
2022/03/14 02:03:06;;;;;;;29.50;27.30;;;;;;;;;;4975903;28;20424;-87
2022/03/14 02:05:37;;;;;;;30.63;28.57;;;;;;;;;;4976395;28;20465;-88
2022/03/14 02:08:06;;;;;;;28.77;26.63;;;;;;;;;;4976587;28;20478;-87
2022/03/14 02:10:34;;;;;;;30.47;28.37;;;;;;;;;;4976501;28;20453;-88
2022/03/14 02:13:05;;;;;;;29.53;27.40;;;;;;;;;;4976426;28;20501;-87
2022/03/14 02:15:33;;;;;;;28.67;26.67;;;;;;;;;;4976372;28;20535;-87
2022/03/14 02:18:11;;;;;;;29.97;27.67;;;;;;;;;;4976330;28;20497;-87
2022/03/14 02:20:40;;;;;;;29.60;27.33;;;;;;;;;;4975956;28;20435;-88
2022/03/14 02:23:07;;;;;;;29.73;27.63;;;;;;;;;;4975448;28;20468;-88
2022/03/14 02:25:35;;;;;;;29.60;27.43;;;;;;;;;;4975992;28;20940;-89
2022/03/14 02:28:02;;;;;;;29.43;27.53;;;;;;;;;;4975925;28;20457;-88
2022/03/14 02:30:30;;;;;;;30.57;28.47;;;;;;;;;;4976044;28;20451;-88
2022/03/14 02:32:58;;;;;;;29.80;27.87;;;;;;;;;;4975746;28;20888;-88
2022/03/14 02:35:25;;;;;;;30.47;27.83;;;;;;;;;;4975999;28;20469;-87
2022/03/14 02:37:54;;;;;;;29.97;28.03;;;;;;;;;;4975603;28;20417;-88
2022/03/14 02:40:21;;;;;;;30.90;28.50;;;;;;;;;;4975829;28;20462;-88
2022/03/14 02:42:48;;;;;;;29.43;27.53;;;;;;;;;;4975609;28;20445;-87
2022/03/14 02:45:17;;;;;;;30.17;27.93;;;;;;;;;;4975791;28;20447;-88
2022/03/14 02:47:44;;;;;;;30.20;28.10;;;;;;;;;;4958174;28;20491;-88
2022/03/14 02:50:12;;;;;;;29.67;27.57;;;;;;;;;;4975509;28;20931;-87
2022/03/14 02:52:39;;;;;;;30.57;28.47;;;;;;;;;;4975483;28;20426;-88
2022/03/14 02:55:08;;;;;;;29.43;27.33;;;;;;;;;;4975272;28;20417;-89
2022/03/14 02:57:36;;;;;;;29.57;27.57;;;;;;;;;;4975726;28;20529;-88
2022/03/14 03:00:05;;;;;;;30.33;28.20;;;;;;;;;;4975546;28;20446;-89
2022/03/14 03:02:36;;;;;;;29.10;27.10;;;;;;;;;;4975193;28;20447;-88
2022/03/14 03:05:05;;;;;;;30.40;28.13;;;;;;;;;;4958128;28;20468;-87
2022/03/14 03:07:32;;;;;;;30.67;28.57;;;;;;;;;;4975406;28;20528;-88
2022/03/14 03:10:00;;;;;;;29.93;27.83;;;;;;;;;;4975347;28;20779;-87
2022/03/14 03:12:31;;;;;;;29.23;27.17;;;;;;;;;;4975366;28;20443;-88
2022/03/14 03:14:58;;;;;;;31.90;28.73;;;;;;;;;;4975364;28;20546;-88
2022/03/14 03:17:26;;;;;;;29.30;27.37;;;;;;;;;;4975483;28;20878;-88
2022/03/14 03:19:53;;;;;;;31.43;28.63;;;;;;;;;;4974848;28;20487;-86
2022/03/14 03:22:21;;;;;;;30.33;28.20;;;;;;;;;;4975078;28;20476;-88
2022/03/14 03:24:48;;;;;;;30.07;28.03;;;;;;;;;;4974966;28;20925;-87
2022/03/14 03:27:15;;;;;;;29.37;27.27;;;;;;;;;;4975094;28;20504;-88
2022/03/14 03:29:44;;;;;;;29.37;27.27;;;;;;;;;;4975352;28;20421;-88
2022/03/14 03:32:12;;;;;;;28.83;26.87;;;;;;;;;;4975218;28;20461;-88
2022/03/14 03:34:39;;;;;;;30.40;28.30;;;;;;;;;;4976723;28;20537;-88
2022/03/14 03:37:06;;;;;;;29.70;27.70;;;;;;;;;;4979082;28;20476;-87
2022/03/14 03:39:34;;;;;;;29.77;27.87;;;;;;;;;;4978963;28;20414;-88
2022/03/14 03:42:01;;;;;;;30.03;27.57;;;;;;;;;;4978893;28;20473;-88
2022/03/14 03:44:29;;;;;;;30.30;28.20;;;;;;;;;;4979154;28;20413;-88
2022/03/14 03:46:58;;;;;;;29.90;27.80;;;;;;;;;;4978802;28;20483;-88
2022/03/14 03:49:26;;;;;;;30.70;28.50;;;;;;;;;;4978922;28;20877;-87
2022/03/14 03:51:53;;;;;;;31.53;29.03;;;;;;;;;;4978599;28;20976;-88
2022/03/14 03:54:21;;;;;;;30.57;28.37;;;;;;;;;;4978894;28;20439;-88
2022/03/14 03:56:48;;;;;;;32.30;29.90;;;;;;;;;;4978562;28;21028;-88
2022/03/14 03:59:16;;;;;;;31.00;28.60;;;;;;;;;;4978631;28;20441;-87
2022/03/14 04:01:43;;;;;;;31.40;28.97;;;;;;;;;;4978135;28;20417;-88
2022/03/14 04:04:12;;;;;;;31.47;28.93;;;;;;;;;;4978193;28;20806;-87
2022/03/14 04:06:39;;;;;;;31.83;29.23;;;;;;;;;;4978661;28;20457;-88
2022/03/14 04:09:07;;;;;;;31.63;29.20;;;;;;;;;;4978487;28;20455;-87
2022/03/14 04:11:36;;;;;;;31.43;29.33;;;;;;;;;;4978284;28;20447;-88
2022/03/14 04:14:03;;;;;;;32.47;30.17;;;;;;;;;;4978299;28;20439;-88
2022/03/14 04:16:31;;;;;;;34.53;31.97;;;;;;;;;;4978434;28;20769;-89
2022/03/14 04:18:58;;;;;;;34.40;31.57;;;;;;;;;;4978233;28;20836;-88
2022/03/14 04:21:27;;;;;;;33.30;30.50;;;;;;;;;;4978305;28;20431;-87
2022/03/14 04:23:55;;;;;;;35.10;32.40;;;;;;;;;;4978281;28;20417;-88
2022/03/14 04:26:22;;;;;;;36.57;33.70;;;;;;;;;;4978412;28;20451;-88
2022/03/14 04:28:49;;;;;;;35.80;32.90;;;;;;;;;;4977948;28;20454;-88
2022/03/14 04:31:16;;;;;;;37.40;34.07;;;;;;;;;;4977850;28;20439;-90
2022/03/14 04:33:44;;;;;;;36.50;33.70;;;;;;;;;;4978133;28;20465;-88
2022/03/14 04:36:11;;;;;;;35.90;32.97;;;;;;;;;;4977845;28;20471;-88
2022/03/14 04:38:40;;;;;;;37.63;34.53;;;;;;;;;;4977707;28;20439;-87
2022/03/14 04:41:08;;;;;;;37.67;34.27;;;;;;;;;;4978131;28;20417;-86
2022/03/14 04:43:35;;;;;;;37.47;34.27;;;;;;;;;;4978163;28;20809;-88
2022/03/14 04:46:03;;;;;;;38.50;34.80;;;;;;;;;;4977666;28;20829;-88
2022/03/14 04:48:30;;;;;;;37.93;34.77;;;;;;;;;;4977657;28;20967;-87
2022/03/14 04:50:57;;;;;;;39.47;35.67;;;;;;;;;;4977993;28;20785;-88
2022/03/14 04:53:25;;;;;;;39.67;36.30;;;;;;;;;;4977619;28;20443;-88
2022/03/14 04:55:53;;;;;;;37.30;33.97;;;;;;;;;;4977503;28;20937;-88
2022/03/14 04:58:21;;;;;;;40.47;36.77;;;;;;;;;;4977395;28;20863;-88
2022/03/14 05:00:49;;;;;;;43.50;39.30;;;;;;;;;;4977607;28;20428;-88
2022/03/14 05:03:16;;;;;;;42.57;38.63;;;;;;;;;;4977714;28;20474;-87
2022/03/14 05:05:43;;;;;;;40.63;36.73;;;;;;;;;;4977703;28;20491;-88
2022/03/14 05:08:11;;;;;;;39.70;36.10;;;;;;;;;;4977561;28;20533;-88
2022/03/14 05:10:38;;;;;;;40.97;37.27;;;;;;;;;;4977311;28;20435;-88
2022/03/14 05:13:07;;;;;;;45.30;40.83;;;;;;;;;;4960187;28;20829;-89
2022/03/14 05:15:34;;;;;;;44.03;39.63;;;;;;;;;;4977551;28;20447;-88
2022/03/14 05:18:02;;;;;;;55.17;45.13;;;;;;;;;;4977134;28;20409;-88
2022/03/14 05:20:29;;;;;;;45.77;41.17;;;;;;;;;;4957776;29;20531;-89
2022/03/14 05:22:57;;;;;;;46.50;41.77;;;;;;;;;;4957947;29;20514;-88
2022/03/14 05:25:26;;;;;;;47.50;42.30;;;;;;;;;;4958110;29;20446;-88
2022/03/14 05:27:54;;;;;;;50.43;45.20;;;;;;;;;;4957862;29;20541;-87
2022/03/14 05:30:23;;;;;;;51.80;44.00;;;;;;;;;;4957910;29;20436;-88
2022/03/14 05:32:50;;;;;;;50.50;43.57;;;;;;;;;;4957701;29;20470;-88
2022/03/14 05:35:18;;;;;;;46.67;42.07;;;;;;;;;;4957699;29;20419;-89
2022/03/14 05:37:46;;;;;;;51.67;40.50;;;;;;;;;;4957388;29;20454;-88
2022/03/14 05:40:15;;;;;;;49.67;43.00;;;;;;;;;;4957741;29;20474;-89
2022/03/14 05:42:43;;;;;;;55.73;46.03;;;;;;;;;;4940970;29;20507;-88
2022/03/14 05:45:11;;;;;;;63.53;47.07;;;;;;;;;;4957430;29;20499;-89
2022/03/14 05:47:40;;;;;;;61.87;48.30;;;;;;;;;;4957101;28;20458;-89
2022/03/14 05:50:08;;;;;;;69.70;48.10;;;;;;;;;;4957252;29;20460;-88
2022/03/14 05:52:35;;;;;;;60.47;49.00;;;;;;;;;;4957442;29;20481;-88
2022/03/14 05:55:03;;;;;;;51.10;44.13;;;;;;;;;;4957502;28;20483;-88
2022/03/14 05:57:30;;;;;;;58.90;49.13;;;;;;;;;;4955292;28;20482;-87
2022/03/14 05:59:58;;;;;;;64.37;49.50;;;;;;;;;;4957206;29;20893;-88
2022/03/14 06:02:25;;;;;;;62.90;48.93;;;;;;;;;;4957026;29;20436;-89
2022/03/14 06:04:55;;;;;;;58.83;50.00;;;;;;;;;;4957190;29;21019;-89
2022/03/14 06:07:23;;;;;;;65.67;51.50;;;;;;;;;;4956408;29;20483;-85
2022/03/14 06:09:51;;;;;;;64.83;48.60;;;;;;;;;;4956354;29;20448;-86
2022/03/14 06:12:27;;;;;;;72.63;51.00;;;;;;;;;;4955783;29;20425;-83
2022/03/14 06:14:55;;;;;;;52.73;45.63;;;;;;;;;;4956353;29;21094;-83
2022/03/14 06:17:22;;;;;;;56.93;48.20;;;;;;;;;;4955634;29;20465;-83
2022/03/14 06:19:50;;;;;;;58.40;47.13;;;;;;;;;;4969610;28;20461;-83
2022/03/14 06:22:19;;;;;;;51.73;46.37;;;;;;;;;;4975124;28;20417;-83
2022/03/14 06:24:47;;;;;;;61.27;49.53;;;;;;;;;;4974669;28;20435;-83
2022/03/14 06:27:15;;;;;;;67.27;48.80;;;;;;;;;;4975237;28;20493;-84
2022/03/14 06:29:42;;;;;;;54.60;46.80;;;;;;;;;;4975382;28;20457;-86
2022/03/14 06:32:10;;;;;;;53.17;47.97;;;;;;;;;;4975327;28;20410;-83
2022/03/14 06:34:37;;;;;;;56.73;49.80;;;;;;;;;;4975801;28;20501;-86
2022/03/14 06:37:06;;;;;;;57.47;48.40;;;;;;;;;;4975804;28;20425;-86
2022/03/14 06:39:36;;;;;;;52.37;46.10;;;;;;;;;;4975855;28;20444;-87
2022/03/14 06:42:05;;;;;;;50.83;44.23;;;;;;;;;;4975484;28;20491;-87
2022/03/14 06:44:32;;;;;;;46.20;40.97;;;;;;;;;;4975907;28;20425;-87
2022/03/14 06:46:59;;;;;;;43.87;39.47;;;;;;;;;;4975477;28;20418;-86
2022/03/14 06:49:27;;;;;;;39.17;35.57;;;;;;;;;;4975198;28;20501;-86
2022/03/14 06:51:54;;;;;;;37.13;33.83;;;;;;;;;;4975530;28;20446;-86
2022/03/14 06:54:21;;;;;;;37.30;33.80;;;;;;;;;;4975832;28;20454;-86
2022/03/14 06:56:50;;;;;;;37.87;34.13;;;;;;;;;;4975253;28;20500;-83
2022/03/14 06:59:18;;;;;;;42.87;36.60;;;;;;;;;;4975620;28;20410;-86
2022/03/14 07:01:45;;;;;;;43.40;38.97;;;;;;;;;;4975129;28;20466;-87
2022/03/14 07:04:12;;;;;;;45.60;40.80;;;;;;;;;;4974791;28;20800;-87
2022/03/14 07:06:40;;;;;;;42.07;37.70;;;;;;;;;;4974779;28;20880;-87
2022/03/14 07:09:07;;;;;;;43.43;38.90;;;;;;;;;;4974569;28;20489;-87
2022/03/14 07:11:35;;;;;;;44.07;39.80;;;;;;;;;;4974863;28;20420;-86
2022/03/14 07:14:04;;;;;;;42.13;37.50;;;;;;;;;;4975353;28;20480;-87
2022/03/14 07:16:31;;;;;;;39.70;35.50;;;;;;;;;;4975524;28;20821;-88
2022/03/14 07:18:58;;;;;;;44.90;38.67;;;;;;;;;;4975025;28;20514;-86
2022/03/14 07:21:28;;;;;;;42.63;38.33;;;;;;;;;;4975335;28;20435;-87
2022/03/14 07:23:56;;;;;;;38.90;35.00;;;;;;;;;;4975109;28;20443;-85
2022/03/14 07:26:23;;;;;;;40.33;36.37;;;;;;;;;;4975253;28;20510;-86
2022/03/14 07:28:51;;;;;;;40.10;36.20;;;;;;;;;;4975171;28;20457;-86
2022/03/14 07:31:20;;;;;;;40.30;36.20;;;;;;;;;;4974978;28;20749;-86
2022/03/14 07:33:49;;;;;;;41.40;37.10;;;;;;;;;;4974617;28;20433;-87
2022/03/14 07:36:16;;;;;;;38.23;34.90;;;;;;;;;;4975422;28;20445;-86
2022/03/14 07:38:43;;;;;;;37.30;33.77;;;;;;;;;;4974955;28;20439;-86
2022/03/14 07:41:11;;;;;;;41.57;37.80;;;;;;;;;;4974901;28;20454;-87
2022/03/14 07:43:40;;;;;;;36.47;33.10;;;;;;;;;;4974667;28;20517;-88
2022/03/14 07:46:07;;;;;;;37.67;33.70;;;;;;;;;;4974977;28;20508;-87
2022/03/14 07:48:36;;;;;;;35.60;32.30;;;;;;;;;;4974671;28;20506;-86
2022/03/14 07:51:04;;;;;;;34.83;31.67;;;;;;;;;;4974840;28;20443;-86
2022/03/14 07:53:31;;;;;;;35.87;32.47;;;;;;;;;;4974663;28;20466;-87
2022/03/14 07:55:58;;;;;;;33.20;30.33;;;;;;;;;;4974925;28;20417;-86
2022/03/14 07:58:26;;;;;;;35.50;32.30;;;;;;;;;;4974382;28;20446;-85
2022/03/14 08:00:54;;;;;;;37.07;33.77;;;;;;;;;;4974546;28;20417;-86
2022/03/14 08:03:23;;;;;;;37.97;34.33;;;;;;;;;;4974542;28;20486;-86
2022/03/14 08:05:58;;;;;;;38.00;34.47;;;;;;;;;;4957455;28;20425;-86
2022/03/14 08:08:26;;;;;;;38.93;35.13;;;;;;;;;;4973919;28;20503;-89
2022/03/14 08:10:54;;;;;;;38.23;34.63;;;;;;;;;;4974484;28;20944;-89
2022/03/14 08:13:21;;;;;;;38.23;34.93;;;;;;;;;;4973146;28;21024;-86
2022/03/14 08:15:49;;;;;;;36.80;33.60;;;;;;;;;;4974625;28;20538;-87
2022/03/14 08:18:16;;;;;;;36.70;33.30;;;;;;;;;;4974186;28;20435;-86
2022/03/14 08:20:43;;;;;;;34.63;31.60;;;;;;;;;;4975737;28;20501;-84
2022/03/14 08:23:12;;;;;;;33.33;30.43;;;;;;;;;;4978195;28;20477;-86
2022/03/14 08:25:39;;;;;;;33.20;30.20;;;;;;;;;;4978070;28;20738;-86
2022/03/14 08:28:07;;;;;;;36.97;33.43;;;;;;;;;;4977546;28;20569;-86
2022/03/14 08:30:34;;;;;;;36.20;33.00;;;;;;;;;;4977895;28;20429;-84
2022/03/14 08:33:02;;;;;;;35.30;32.10;;;;;;;;;;4977309;28;20866;-86
2022/03/14 08:35:30;;;;;;;35.27;32.20;;;;;;;;;;4977480;28;20422;-86
2022/03/14 08:37:58;;;;;;;33.77;30.43;;;;;;;;;;4977689;28;20421;-87
2022/03/14 08:40:28;;;;;;;35.60;32.43;;;;;;;;;;4979274;28;20447;-86
2022/03/14 08:42:57;;;;;;;32.80;30.03;;;;;;;;;;4976995;28;20982;-86
2022/03/14 08:45:25;;;;;;;34.07;30.90;;;;;;;;;;4959978;28;20818;-85
2022/03/14 08:47:53;;;;;;;32.70;29.80;;;;;;;;;;4960115;28;20546;-85
2022/03/14 08:50:21;;;;;;;32.53;29.70;;;;;;;;;;4977294;28;20502;-85
2022/03/14 08:52:48;;;;;;;32.60;29.70;;;;;;;;;;4977652;28;20430;-89
2022/03/14 08:55:16;;;;;;;32.93;29.90;;;;;;;;;;4977079;28;20845;-86
2022/03/14 08:57:45;;;;;;;33.30;30.30;;;;;;;;;;4977009;28;20467;-85
2022/03/14 09:00:13;;;;;;;32.33;29.73;;;;;;;;;;4977283;28;20454;-86
2022/03/14 09:02:41;;;;;;;30.10;27.70;;;;;;;;;;4977130;28;20880;-88
2022/03/14 09:05:08;;;;;;;29.73;27.20;;;;;;;;;;4977714;28;20442;-83
2022/03/14 09:07:36;;;;;;;30.80;28.23;;;;;;;;;;4976618;28;20439;-83
2022/03/14 09:10:04;;;;;;;34.30;31.27;;;;;;;;;;4976736;28;20549;-85
2022/03/14 09:12:33;;;;;;;31.47;28.77;;;;;;;;;;4977047;28;20776;-86
2022/03/14 09:15:02;;;;;;;29.70;27.17;;;;;;;;;;4976432;28;20981;-84
2022/03/14 09:17:30;;;;;;;32.00;29.30;;;;;;;;;;4976432;28;20439;-84
2022/03/14 09:19:58;;;;;;;33.77;30.33;;;;;;;;;;4976051;28;20486;-83
2022/03/14 09:22:25;;;;;;;31.47;28.37;;;;;;;;;;4975598;28;20414;-83
2022/03/14 09:24:55;;;;;;;31.93;29.30;;;;;;;;;;4976352;28;20475;-84
2022/03/14 09:27:23;;;;;;;32.30;29.60;;;;;;;;;;4976344;28;20435;-84
2022/03/14 09:29:51;;;;;;;32.33;29.50;;;;;;;;;;4976398;28;20574;-83
2022/03/14 09:32:20;;;;;;;30.47;27.93;;;;;;;;;;4975130;28;20933;-83
2022/03/14 09:34:47;;;;;;;30.98;28.42;;;;;;;;;;4976533;28;20836;-84
2022/03/14 09:37:14;;;;;;;30.13;27.73;;;;;;;;;;4976329;28;20602;-84
2022/03/14 09:39:42;;;;;;;31.40;28.83;;;;;;;;;;4976114;28;20476;-85
2022/03/14 09:42:12;;;;;;;30.07;27.57;;;;;;;;;;4975963;28;20439;-83
2022/03/14 09:44:42;;;;;;;30.43;27.93;;;;;;;;;;4976742;28;20447;-88
2022/03/14 09:47:10;;;;;;;30.80;27.97;;;;;;;;;;4977138;28;20451;-87
2022/03/14 09:49:41;;;;;;;30.93;28.43;;;;;;;;;;4976323;28;20550;-88
2022/03/14 09:52:09;;;;;;;31.43;28.77;;;;;;;;;;4976763;28;21008;-87
2022/03/14 09:54:37;;;;;;;29.43;27.17;;;;;;;;;;4976235;28;20480;-84
2022/03/14 09:57:04;;;;;;;27.93;26.13;;;;;;;;;;4975783;28;20452;-83
2022/03/14 09:59:32;;;;;;;28.30;26.20;;;;;;;;;;4975900;28;20442;-84
2022/03/14 10:01:59;;;;;;;29.47;27.10;;;;;;;;;;4975235;28;20431;-84
2022/03/14 10:04:27;;;;;;;29.80;27.73;;;;;;;;;;4975400;28;20791;-86
2022/03/14 10:06:55;;;;;;;28.37;26.10;;;;;;;;;;4975619;28;20416;-84
2022/03/14 10:09:23;;;;;;;30.53;28.10;;;;;;;;;;4958472;28;20512;-85
2022/03/14 10:11:50;;;;;;;26.73;24.83;;;;;;;;;;4975408;28;20414;-84
2022/03/14 10:14:19;;;;;;;28.33;26.20;;;;;;;;;;4975800;28;20467;-85
2022/03/14 10:16:47;;;;;;;28.73;26.40;;;;;;;;;;4974286;28;20892;-85
2022/03/14 10:19:20;;;;;;;29.27;26.97;;;;;;;;;;4975036;28;20505;-84
2022/03/14 10:21:51;;;;;;;31.60;29.00;;;;;;;;;;4976026;28;20443;-88
2022/03/14 10:24:22;;;;;;;29.33;27.03;;;;;;;;;;4975695;28;20454;-84
2022/03/14 10:26:49;;;;;;;32.23;29.40;;;;;;;;;;4976046;28;20421;-85
2022/03/14 10:29:20;;;;;;;32.60;29.80;;;;;;;;;;4975928;28;20490;-88
2022/03/14 10:31:54;;;;;;;34.70;31.70;;;;;;;;;;4974898;28;20426;-88
2022/03/14 10:34:21;;;;;;;33.60;30.70;;;;;;;;;;4976114;28;20453;-89
2022/03/14 10:36:49;;;;;;;34.07;31.17;;;;;;;;;;4975845;28;20421;-88
2022/03/14 10:39:21;;;;;;;31.97;29.10;;;;;;;;;;4976164;28;20443;-88
2022/03/14 10:42:03;;;;;;;34.20;31.30;;;;;;;;;;4958369;28;20493;-88
2022/03/14 10:44:30;;;;;;;35.00;31.57;;;;;;;;;;4975182;28;20453;-85
2022/03/14 10:46:59;;;;;;;36.93;33.60;;;;;;;;;;4975138;28;20438;-88
2022/03/14 10:49:30;;;;;;;40.13;36.07;;;;;;;;;;4974712;28;20556;-83
2022/03/14 10:51:59;;;;;;;39.63;35.90;;;;;;;;;;4974229;28;20414;-82
2022/03/14 10:54:27;;;;;;;36.77;33.37;;;;;;;;;;4974372;28;20468;-83
2022/03/14 10:57:03;;;;;;;38.07;34.73;;;;;;;;;;4974034;28;20438;-83
2022/03/14 10:59:33;;;;;;;41.03;36.90;;;;;;;;;;4975295;28;20508;-85
2022/03/14 11:02:01;;;;;;;39.10;35.37;;;;;;;;;;4974870;28;20443;-85
2022/03/14 11:04:28;;;;;;;37.47;34.07;;;;;;;;;;4974346;28;20450;-84
2022/03/14 11:07:02;;;;;;;39.70;36.13;;;;;;;;;;4974617;28;20497;-84
2022/03/14 11:09:38;;;;;;;36.50;33.27;;;;;;;;;;4974659;28;20493;-84
2022/03/14 11:12:11;;;;;;;41.17;37.37;;;;;;;;;;4974190;28;20438;-84
2022/03/14 11:14:39;;;;;;;41.20;37.20;;;;;;;;;;4974671;28;20438;-84
2022/03/14 11:17:14;;;;;;;39.47;35.63;;;;;;;;;;4974250;28;20451;-84
2022/03/14 11:19:42;;;;;;;39.33;35.67;;;;;;;;;;4974208;28;20445;-84
2022/03/14 11:22:11;;;;;;;34.93;31.23;;;;;;;;;;4975027;28;20439;-85
2022/03/14 11:24:40;;;;;;;42.17;38.40;;;;;;;;;;4975456;28;20504;-86
2022/03/14 11:27:08;;;;;;;40.10;36.40;;;;;;;;;;4974354;28;20518;-84
2022/03/14 11:29:39;;;;;;;38.30;34.87;;;;;;;;;;4974121;28;20457;-84
2022/03/14 11:32:07;;;;;;;39.13;35.43;;;;;;;;;;4974445;28;20414;-85
2022/03/14 11:34:35;;;;;;;31.20;28.60;;;;;;;;;;4974134;28;20421;-84
2022/03/14 11:37:03;;;;;;;33.67;30.53;;;;;;;;;;4974570;28;20439;-84
2022/03/14 11:39:31;;;;;;;35.57;32.43;;;;;;;;;;4974240;28;20816;-84
2022/03/14 11:41:59;;;;;;;28.70;26.50;;;;;;;;;;4975092;28;20447;-86
2022/03/14 11:44:27;;;;;;;32.57;29.90;;;;;;;;;;4975025;28;20465;-85
2022/03/14 11:46:57;;;;;;;30.80;28.17;;;;;;;;;;4975487;28;20451;-84
2022/03/14 11:49:26;;;;;;;29.20;26.80;;;;;;;;;;4974852;28;20453;-86
2022/03/14 11:52:06;;;;;;;31.13;28.47;;;;;;;;;;4974626;28;20439;-85
2022/03/14 11:54:37;;;;;;;30.80;28.50;;;;;;;;;;4974881;28;20537;-84
2022/03/14 11:57:04;;;;;;;31.07;28.73;;;;;;;;;;4978026;28;20479;-84
2022/03/14 11:59:34;;;;;;;28.83;26.27;;;;;;;;;;4978202;28;20442;-85
2022/03/14 12:02:05;;;;;;;27.77;25.50;;;;;;;;;;4977823;28;20439;-82
2022/03/14 12:04:34;;;;;;;27.90;25.70;;;;;;;;;;4978214;28;20450;-81
2022/03/14 12:07:08;;;;;;;25.47;23.57;;;;;;;;;;4977917;28;20922;-83
2022/03/14 12:09:55;;;;;;;28.63;25.93;;;;;;;;;;4977935;28;20463;-84
2022/03/14 12:12:27;;;;;;;24.40;22.40;;;;;;;;;;4977733;28;20462;-85
2022/03/14 12:14:56;;;;;;;33.50;31.00;;;;;;;;;;4978140;28;20442;-84
2022/03/14 12:17:26;;;;;;;34.03;31.13;;;;;;;;;;4978308;28;20466;-85
2022/03/14 12:19:56;;;;;;;26.00;23.90;;;;;;;;;;4977540;28;20867;-84
2022/03/14 12:22:42;;;;;;;29.17;26.27;;;;;;;;;;4978104;28;20447;-84
2022/03/14 12:25:10;;;;;;;33.30;30.23;;;;;;;;;;4977905;28;20509;-85
2022/03/14 12:27:38;;;;;;;28.17;25.80;;;;;;;;;;4977760;28;20436;-85
2022/03/14 12:30:07;;;;;;;31.80;29.00;;;;;;;;;;4977649;28;20502;-85
2022/03/14 12:32:40;;;;;;;32.67;29.93;;;;;;;;;;4977861;28;20422;-85
2022/03/14 12:35:12;;;;;;;29.13;26.63;;;;;;;;;;4977349;28;20992;-85
2022/03/14 12:37:40;;;;;;;32.77;29.67;;;;;;;;;;4977739;28;20789;-84
2022/03/14 12:40:09;;;;;;;26.60;24.60;;;;;;;;;;4977129;28;20948;-83
2022/03/14 12:42:40;;;;;;;34.13;30.63;;;;;;;;;;4977394;28;20446;-85
2022/03/14 12:45:31;;;;;;;34.20;31.30;;;;;;;;;;4977740;28;20480;-85
2022/03/14 12:48:05;;;;;;;36.13;32.77;;;;;;;;;;4977339;28;20888;-85
2022/03/14 12:50:51;;;;;;;31.43;28.57;;;;;;;;;;4977601;28;20833;-85
2022/03/14 12:53:19;;;;;;;34.23;31.43;;;;;;;;;;4977359;28;20500;-85
2022/03/14 12:55:47;;;;;;;29.93;27.30;;;;;;;;;;4977330;28;20436;-85
2022/03/14 12:58:19;;;;;;;37.87;34.47;;;;;;;;;;4977432;28;20801;-84
2022/03/14 13:00:46;;;;;;;35.97;32.83;;;;;;;;;;4977270;28;20512;-85
2022/03/14 13:03:20;;;;;;;35.30;32.30;;;;;;;;;;4977332;28;20472;-84
2022/03/14 13:05:50;;;;;;;35.60;32.40;;;;;;;;;;4977014;28;20451;-85
2022/03/14 13:08:17;;;;;;;38.50;34.67;;;;;;;;;;4959767;28;20459;-85
2022/03/14 13:10:46;;;;;;;41.57;37.40;;;;;;;;;;4977141;28;20859;-85
2022/03/14 13:13:14;;;;;;;42.60;38.60;;;;;;;;;;4977172;28;20447;-85
2022/03/14 13:15:42;;;;;;;31.77;27.47;;;;;;;;;;4959662;28;20428;-85
2022/03/14 13:18:22;;;;;;;43.87;40.03;;;;;;;;;;4977125;28;20414;-82
2022/03/14 13:20:50;;;;;;;40.17;36.60;;;;;;;;;;4976232;28;20602;-85
2022/03/14 13:23:18;;;;;;;41.80;37.97;;;;;;;;;;4976605;28;20422;-85
2022/03/14 13:25:50;;;;;;;38.97;35.00;;;;;;;;;;4976631;28;20456;-86
2022/03/14 13:28:27;;;;;;;41.17;37.57;;;;;;;;;;4976882;28;20417;-85
2022/03/14 13:30:55;;;;;;;35.70;32.33;;;;;;;;;;4976563;28;20492;-86
2022/03/14 13:33:26;;;;;;;42.43;38.63;;;;;;;;;;4976735;28;20417;-87
2022/03/14 13:35:53;;;;;;;38.70;35.10;;;;;;;;;;4976404;28;20823;-87
2022/03/14 13:38:34;;;;;;;36.70;33.23;;;;;;;;;;4976910;28;20439;-86
2022/03/14 13:41:03;;;;;;;37.23;33.97;;;;;;;;;;4976562;28;20513;-85
2022/03/14 13:43:30;;;;;;;34.03;30.93;;;;;;;;;;4976268;28;20478;-84
2022/03/14 13:46:16;;;;;;;39.60;35.57;;;;;;;;;;4976197;28;20466;-83
2022/03/14 13:48:51;;;;;;;39.20;35.70;;;;;;;;;;4976418;28;20552;-85
2022/03/14 13:51:20;;;;;;;34.80;31.57;;;;;;;;;;4975964;28;20960;-85
2022/03/14 13:53:52;;;;;;;38.63;35.03;;;;;;;;;;4975799;28;20414;-84
2022/03/14 13:56:23;;;;;;;40.30;36.70;;;;;;;;;;4975782;28;21004;-84
2022/03/14 13:58:54;;;;;;;38.33;34.80;;;;;;;;;;4958769;28;20539;-85
2022/03/14 14:01:40;;;;;;;34.10;31.20;;;;;;;;;;4975812;28;20437;-83
2022/03/14 14:04:18;;;;;;;34.60;30.93;;;;;;;;;;4975624;28;20477;-83
2022/03/14 14:06:50;;;;;;;30.50;28.20;;;;;;;;;;4975530;28;20900;-83
2022/03/14 14:09:25;;;;;;;32.60;29.97;;;;;;;;;;4975358;28;20422;-83
2022/03/14 14:12:12;;;;;;;31.63;28.67;;;;;;;;;;4975664;28;20436;-83
2022/03/14 14:14:41;;;;;;;34.57;31.80;;;;;;;;;;4975362;28;20480;-84
2022/03/14 14:17:15;;;;;;;35.40;32.23;;;;;;;;;;4975549;28;20443;-85
2022/03/14 14:20:03;;;;;;;34.70;32.20;;;;;;;;;;4975015;28;20482;-87
2022/03/14 14:22:36;;;;;;;35.30;32.50;;;;;;;;;;4975618;28;20424;-87
2022/03/14 14:25:08;;;;;;;34.13;31.47;;;;;;;;;;4975291;28;20418;-87
2022/03/14 14:27:35;;;;;;;36.37;33.37;;;;;;;;;;4974736;28;20427;-88